Plevna, Missouri
Current Conditions -  °F | °C
As of 4:55 AM on Friday 28 Nov 2014 (Local Time) from KIRK Reporting Station
Clear Clear  
Wind Chill:   Ceiling: Unl
Heat Index: 22°   Visibility: 10mi
Dew Point: 20°   Wind: 14mph
Humidity: 92%   Direction: 160°SSE
Pressure: 30.14"   Gusts: NA
Location:  39.97°N, 92.09°W
Report Text: KIRK 281055Z AUTO 16012KT 10SM CLR M06/M07 A3014 RMK AO2 SLP225 T10561067
Loading
Personal Weather Stations






























Interactive Weather Map New forecast layout! Learn more

10-Day Weather Forecast

Advertisements
Track Severe Weather on mobile